createdAt,value
2022-10-25T00:00:58.364Z,2.13
2022-10-25T00:03:25.395Z,0.73
2022-10-25T00:05:52.364Z,5.32
2022-10-25T00:08:19.321Z,1.77
2022-10-25T00:10:46.326Z,0.70
2022-10-25T00:13:13.306Z,2.00
2022-10-25T00:15:40.276Z,0.82
2022-10-25T00:18:07.242Z,0.73
2022-10-25T00:20:36.897Z,1.52
2022-10-25T00:23:03.855Z,3.10
2022-10-25T00:25:30.827Z,2.53
2022-10-25T00:27:57.777Z,3.45
2022-10-25T00:30:24.951Z,5.03
2022-10-25T00:32:52.909Z,5.90
2022-10-25T00:35:20.096Z,1.27
2022-10-25T00:37:47.170Z,0.75
2022-10-25T00:40:14.257Z,2.25
2022-10-25T00:42:41.248Z,2.05
2022-10-25T00:45:22.137Z,1.13
2022-10-25T00:47:57.911Z,1.38
2022-10-25T00:50:48.212Z,4.50
2022-10-25T00:53:20.417Z,6.22
2022-10-25T00:55:52.189Z,3.20
2022-10-25T00:58:24.236Z,4.22
2022-10-25T01:00:51.259Z,2.83
2022-10-25T01:03:20.928Z,1.27
2022-10-25T01:05:48.960Z,3.95
2022-10-25T01:08:17.677Z,2.10
2022-10-25T01:10:44.665Z,2.58
2022-10-25T01:13:11.881Z,1.83
2022-10-25T01:15:52.028Z,1.48
2022-10-25T01:22:35.886Z,3.85
2022-10-25T01:25:30.846Z,6.05
2022-10-25T01:28:06.733Z,3.13
2022-10-25T01:31:11.945Z,1.42
2022-10-25T01:33:59.751Z,3.00
2022-10-25T01:36:51.569Z,2.58
2022-10-25T01:39:21.249Z,6.30
2022-10-25T01:42:17.192Z,0.70
2022-10-25T01:45:09.109Z,2.00
2022-10-25T01:47:38.674Z,2.45
2022-10-25T01:50:11.106Z,2.22
2022-10-25T01:52:38.076Z,1.10
2022-10-25T01:55:09.733Z,4.32
2022-10-25T01:57:54.068Z,1.92
2022-10-25T02:00:23.578Z,1.60
2022-10-25T02:02:59.367Z,8.73
2022-10-25T02:05:27.891Z,2.78
2022-10-25T02:08:17.817Z,2.17
2022-10-25T02:10:53.748Z,1.23
2022-10-25T02:13:38.888Z,3.10
2022-10-25T02:16:19.158Z,1.33
2022-10-25T02:18:51.397Z,1.13
2022-10-25T02:21:19.116Z,1.95
2022-10-25T02:23:48.399Z,3.72
2022-10-25T02:26:16.682Z,3.15
2022-10-25T02:28:44.441Z,3.25
2022-10-25T02:31:16.540Z,3.75
2022-10-25T02:33:47.843Z,2.28
2022-10-25T02:36:20.783Z,3.17
2022-10-25T02:38:49.280Z,1.85
2022-10-25T02:41:16.840Z,1.83
2022-10-25T02:43:44.329Z,3.67
2022-10-25T02:46:14.284Z,4.50
2022-10-25T02:48:42.359Z,2.92
2022-10-25T02:51:11.346Z,3.42
2022-10-25T02:53:39.066Z,4.07
2022-10-25T02:56:07.729Z,5.47
2022-10-25T02:58:36.893Z,2.70
2022-10-25T03:01:05.307Z,3.33
2022-10-25T03:03:33.010Z,4.03
2022-10-25T03:06:00.001Z,5.00
2022-10-25T03:10:55.665Z,2.10
2022-10-25T03:13:22.629Z,3.50
2022-10-25T03:15:49.941Z,3.30
2022-10-25T03:18:16.905Z,5.15
2022-10-25T03:20:44.306Z,2.78
2022-10-25T03:23:11.981Z,4.57
2022-10-25T03:25:39.245Z,12.43
2022-10-25T03:28:06.220Z,3.17
2022-10-25T03:30:33.502Z,2.92
2022-10-25T03:33:00.524Z,5.50
2022-10-25T03:35:27.788Z,4.07
2022-10-25T03:37:54.997Z,3.95
2022-10-25T03:40:22.146Z,6.07
2022-10-25T03:42:49.051Z,4.00
2022-10-25T03:45:16.051Z,2.10
2022-10-25T03:47:43.201Z,3.83
2022-10-25T03:50:10.596Z,5.20
2022-10-25T03:52:37.777Z,4.68
2022-10-25T03:55:05.552Z,4.30
2022-10-25T03:57:32.481Z,5.40
2022-10-25T03:59:59.758Z,5.35
2022-10-25T04:02:27.930Z,4.72
2022-10-25T04:04:54.981Z,5.32
2022-10-25T04:07:21.885Z,5.57
2022-10-25T04:09:48.740Z,4.20
2022-10-25T04:12:15.807Z,6.05
2022-10-25T04:14:43.269Z,7.97
2022-10-25T04:17:10.258Z,3.85
2022-10-25T04:19:37.170Z,3.47
2022-10-25T04:22:04.145Z,3.03
2022-10-25T04:24:31.104Z,5.30
2022-10-25T04:26:58.065Z,4.93
2022-10-25T04:29:24.995Z,2.30
2022-10-25T04:31:51.966Z,6.28
2022-10-25T04:34:19.054Z,5.28
2022-10-25T04:36:46.036Z,3.72
2022-10-25T04:39:12.967Z,15.35
2022-10-25T04:41:39.921Z,3.90
2022-10-25T04:44:06.927Z,5.68
2022-10-25T04:46:33.978Z,7.05
2022-10-25T04:49:00.860Z,2.92
2022-10-25T04:51:27.781Z,5.00
2022-10-25T04:53:55.441Z,7.57
2022-10-25T04:56:23.306Z,4.45
2022-10-25T04:58:50.314Z,4.55
2022-10-25T05:01:19.309Z,5.07
2022-10-25T05:03:46.763Z,2.72
2022-10-25T05:06:19.320Z,6.68
2022-10-25T05:08:50.791Z,4.88
2022-10-25T05:11:21.161Z,4.38
2022-10-25T05:13:48.525Z,4.38
2022-10-25T05:16:22.176Z,6.18
2022-10-25T05:18:50.590Z,6.05
2022-10-25T05:21:18.754Z,4.22
2022-10-25T05:23:46.605Z,7.93
2022-10-25T05:26:16.469Z,5.65
2022-10-25T05:31:20.652Z,5.95
2022-10-25T05:33:53.415Z,7.57
2022-10-25T05:36:21.153Z,3.20
2022-10-25T05:38:48.431Z,5.95
2022-10-25T05:41:17.218Z,4.47
2022-10-25T05:43:45.088Z,4.05
2022-10-25T05:46:15.280Z,4.30
2022-10-25T05:51:32.851Z,5.50
2022-10-25T05:54:12.949Z,6.32
2022-10-25T05:56:40.723Z,8.10
2022-10-25T05:59:09.903Z,5.07
2022-10-25T06:01:39.647Z,4.82
2022-10-25T06:06:34.844Z,5.97
2022-10-25T06:09:02.537Z,3.60
2022-10-25T06:11:30.060Z,3.63
2022-10-25T06:13:57.150Z,5.45
2022-10-25T06:16:24.536Z,4.63
2022-10-25T06:18:52.398Z,9.75
2022-10-25T06:21:22.113Z,6.60
2022-10-25T06:23:49.752Z,5.57
2022-10-25T06:26:22.841Z,5.85
2022-10-25T06:28:53.592Z,3.47
2022-10-25T06:31:21.107Z,5.40
2022-10-25T06:33:48.356Z,6.30
2022-10-25T06:36:21.823Z,2.92
2022-10-25T06:38:50.020Z,5.65
2022-10-25T06:41:19.775Z,4.45
2022-10-25T06:46:25.604Z,4.88
2022-10-25T06:48:54.079Z,4.32
2022-10-25T06:51:22.104Z,4.90
2022-10-25T06:53:57.883Z,4.13
2022-10-25T06:56:26.243Z,4.07
2022-10-25T06:58:53.477Z,9.02
2022-10-25T07:01:22.410Z,3.97
2022-10-25T07:03:50.940Z,7.30
2022-10-25T07:06:22.183Z,5.90
2022-10-25T07:08:58.828Z,6.43
2022-10-25T07:11:27.123Z,8.13
2022-10-25T07:13:55.092Z,4.43
2022-10-25T07:16:22.343Z,4.05
2022-10-25T07:18:49.461Z,4.35
2022-10-25T07:21:21.551Z,6.40
2022-10-25T07:23:50.298Z,4.75
2022-10-25T07:26:20.554Z,3.85
2022-10-25T07:28:50.120Z,6.07
2022-10-25T07:31:23.288Z,5.38
2022-10-25T07:33:51.899Z,6.85
2022-10-25T07:36:19.242Z,4.97
2022-10-25T07:38:46.715Z,2.80
2022-10-25T07:41:13.768Z,4.82
2022-10-25T07:43:40.862Z,4.03
2022-10-25T07:46:08.064Z,3.90
2022-10-25T07:48:35.454Z,5.32
2022-10-25T07:51:08.023Z,5.97
2022-10-25T07:53:35.134Z,4.47
2022-10-25T07:56:02.115Z,3.25
2022-10-25T07:58:29.473Z,2.85
2022-10-25T08:01:05.228Z,4.32
2022-10-25T08:03:33.003Z,5.35
2022-10-25T08:06:00.806Z,3.65
2022-10-25T08:08:28.560Z,4.05
2022-10-25T08:10:56.038Z,6.72
2022-10-25T08:13:23.115Z,6.05
2022-10-25T08:15:54.656Z,3.35
2022-10-25T08:18:22.971Z,5.00
2022-10-25T08:21:01.777Z,3.35
2022-10-25T08:23:31.590Z,5.72
2022-10-25T08:25:59.353Z,4.45
2022-10-25T08:28:26.414Z,5.45
2022-10-25T08:30:55.432Z,3.70
2022-10-25T08:33:22.996Z,3.60
2022-10-25T08:35:50.078Z,5.10
2022-10-25T08:38:17.124Z,3.10
2022-10-25T08:40:52.996Z,5.28
2022-10-25T08:43:45.120Z,2.45
2022-10-25T08:46:29.697Z,6.93
2022-10-25T08:49:16.267Z,5.75
2022-10-25T08:51:47.341Z,4.32
2022-10-25T08:54:26.511Z,4.90
2022-10-25T08:57:15.079Z,4.90
2022-10-25T08:59:45.357Z,6.40
2022-10-25T09:02:46.016Z,1.85
2022-10-25T09:05:50.444Z,6.40
2022-10-25T09:08:39.191Z,6.47
2022-10-25T09:11:53.893Z,3.70
2022-10-25T09:14:51.601Z,2.47
2022-10-25T09:17:25.351Z,3.08
2022-10-25T09:19:54.980Z,4.80
2022-10-25T09:22:28.098Z,4.18
2022-10-25T09:25:03.112Z,5.05
2022-10-25T09:27:46.638Z,6.85
2022-10-25T09:30:13.884Z,5.18
2022-10-25T09:32:43.012Z,7.18
2022-10-25T09:35:20.798Z,3.67
2022-10-25T09:38:01.984Z,6.22
2022-10-25T09:40:56.773Z,5.82
2022-10-25T09:43:33.983Z,4.03
2022-10-25T09:46:07.028Z,3.88
2022-10-25T09:48:50.804Z,4.20
2022-10-25T09:51:32.042Z,3.70
2022-10-25T09:54:02.223Z,4.03
2022-10-25T09:56:29.429Z,5.80
2022-10-25T09:58:58.014Z,3.90
2022-10-25T10:01:29.465Z,5.82
2022-10-25T10:04:21.148Z,3.47
2022-10-25T10:06:50.827Z,6.68
2022-10-25T10:09:18.317Z,3.70
2022-10-25T10:11:47.758Z,4.68
2022-10-25T10:14:39.480Z,2.65
2022-10-25T10:17:12.169Z,4.13
2022-10-25T10:19:40.529Z,4.63
2022-10-25T10:22:15.337Z,5.13
2022-10-25T10:24:44.572Z,6.63
2022-10-25T10:27:26.517Z,6.93
2022-10-25T10:30:00.813Z,3.63
2022-10-25T10:41:31.845Z,4.00
2022-10-25T10:44:13.490Z,5.57
2022-10-25T10:50:36.155Z,7.20
2022-10-25T10:53:06.110Z,5.30
2022-10-25T10:55:38.125Z,4.10
2022-10-25T10:58:05.014Z,4.43
2022-10-25T11:04:53.778Z,5.13
2022-10-25T11:07:26.823Z,3.00
2022-10-25T11:09:53.726Z,3.88
2022-10-25T11:12:24.806Z,4.13
2022-10-25T11:14:51.957Z,4.30
2022-10-25T11:17:32.328Z,1.38
2022-10-25T11:20:30.766Z,4.13
2022-10-25T11:23:22.075Z,3.72
2022-10-25T11:25:58.223Z,3.72
2022-10-25T11:28:42.238Z,4.10
2022-10-25T11:32:18.143Z,3.55
2022-10-25T11:34:54.059Z,3.20
2022-10-25T11:37:23.377Z,3.72
2022-10-25T11:40:14.837Z,2.20
2022-10-25T11:43:22.517Z,3.40
2022-10-25T11:45:59.391Z,4.53
2022-10-25T11:48:29.351Z,3.55
2022-10-25T11:51:31.723Z,5.53
2022-10-25T11:54:20.563Z,2.63
2022-10-25T11:57:05.581Z,5.23
2022-10-25T12:00:03.567Z,5.53
2022-10-25T12:02:34.284Z,15.07
2022-10-25T12:08:08.872Z,3.55
2022-10-25T12:11:18.027Z,3.85
2022-10-25T12:13:50.816Z,5.07
2022-10-25T12:16:21.031Z,3.15
2022-10-25T12:19:13.590Z,6.15
2022-10-25T12:21:51.076Z,6.43
2022-10-25T12:24:22.413Z,4.20
2022-10-25T12:26:53.124Z,6.65
2022-10-25T12:29:26.522Z,3.10
2022-10-25T12:31:58.269Z,5.22
2022-10-25T12:34:43.022Z,3.60
2022-10-25T12:37:36.036Z,3.78
2022-10-25T12:40:04.824Z,3.60
2022-10-25T12:43:16.609Z,4.30
2022-10-25T12:46:10.755Z,2.83
2022-10-25T12:48:43.458Z,3.78
2022-10-25T12:51:29.267Z,5.28
2022-10-25T12:53:58.935Z,4.40
2022-10-25T12:56:37.471Z,4.55
2022-10-25T12:59:19.329Z,5.30
2022-10-25T13:01:52.434Z,4.88
2022-10-25T13:04:43.766Z,3.13
2022-10-25T13:07:12.446Z,5.07
2022-10-25T13:09:39.850Z,2.92
2022-10-25T13:12:16.804Z,4.93
2022-10-25T13:14:56.077Z,2.58
2022-10-25T13:17:22.885Z,4.38
2022-10-25T13:23:59.606Z,7.35
2022-10-25T13:26:30.961Z,1.77
2022-10-25T13:29:00.220Z,5.28
2022-10-25T13:31:34.871Z,5.82
2022-10-25T13:34:13.954Z,6.00
2022-10-25T13:36:56.461Z,5.85
2022-10-25T13:39:29.272Z,4.93
2022-10-25T13:42:16.375Z,6.40
2022-10-25T13:44:53.547Z,6.13
2022-10-25T13:47:37.050Z,2.47
2022-10-25T13:50:29.065Z,4.72
2022-10-25T13:53:27.331Z,5.85
2022-10-25T13:56:07.113Z,6.47
2022-10-25T14:03:03.061Z,4.65
2022-10-25T14:05:55.090Z,4.82
2022-10-25T14:08:59.457Z,2.33
2022-10-25T14:11:32.492Z,3.97
2022-10-25T14:14:05.401Z,7.28
2022-10-25T14:21:05.593Z,3.40
2022-10-25T14:23:34.759Z,5.00
2022-10-25T14:26:03.107Z,5.20
2022-10-25T14:28:32.610Z,3.38
2022-10-25T14:31:04.801Z,4.65
2022-10-25T14:33:36.746Z,4.70
2022-10-25T14:36:06.396Z,5.85
2022-10-25T14:39:40.465Z,3.50
2022-10-25T14:42:17.153Z,4.15
2022-10-25T14:44:47.306Z,3.50
2022-10-25T14:47:33.895Z,3.50
2022-10-25T14:50:02.096Z,4.95
2022-10-25T14:52:31.481Z,5.18
2022-10-25T14:55:03.329Z,3.40
2022-10-25T14:57:31.473Z,3.85
2022-10-25T15:00:01.893Z,7.38
2022-10-25T15:02:39.878Z,4.93
2022-10-25T15:05:07.482Z,5.38
2022-10-25T15:07:41.401Z,5.22
2022-10-25T15:10:28.822Z,4.00
2022-10-25T15:12:56.239Z,2.33
2022-10-25T15:15:36.473Z,4.90
2022-10-25T15:18:05.185Z,3.60
2022-10-25T15:20:34.594Z,7.72
2022-10-25T15:23:14.641Z,5.50
2022-10-25T15:25:41.684Z,6.65
2022-10-25T15:28:14.409Z,6.75
2022-10-25T15:30:45.055Z,4.57
2022-10-25T15:33:21.742Z,3.90
2022-10-25T15:35:58.117Z,2.88
2022-10-25T15:39:10.421Z,3.15
2022-10-25T15:41:40.086Z,7.05
2022-10-25T15:44:07.197Z,5.88
2022-10-25T15:46:35.047Z,3.55
2022-10-25T15:49:06.726Z,6.50
2022-10-25T15:51:36.076Z,4.90
2022-10-25T15:54:03.194Z,3.67
2022-10-25T15:56:30.610Z,5.97
2022-10-25T15:59:00.371Z,7.07
2022-10-25T16:01:27.515Z,6.47
2022-10-25T16:03:54.538Z,8.00
2022-10-25T16:06:21.511Z,7.15
2022-10-25T16:08:48.452Z,6.68
2022-10-25T16:11:18.801Z,7.85
2022-10-25T16:13:48.118Z,5.72
2022-10-25T16:16:40.381Z,8.55
2022-10-25T16:19:16.054Z,7.72
2022-10-25T16:21:43.882Z,5.70
2022-10-25T16:24:11.683Z,7.80
2022-10-25T16:26:44.812Z,11.27
2022-10-25T16:29:20.790Z,8.45
2022-10-25T16:31:47.773Z,6.25
2022-10-25T16:34:19.501Z,5.63
2022-10-25T16:36:48.097Z,9.48
2022-10-25T16:39:15.561Z,2.78
2022-10-25T16:41:47.014Z,5.03
2022-10-25T16:44:16.731Z,6.60
2022-10-25T16:46:44.412Z,5.13
2022-10-25T16:49:12.066Z,12.25
2022-10-25T16:51:40.024Z,6.43
2022-10-25T16:54:07.358Z,5.95
2022-10-25T16:56:34.446Z,7.93
2022-10-25T16:59:01.452Z,6.18
2022-10-25T17:01:34.437Z,8.55
2022-10-25T17:08:27.575Z,9.73
2022-10-25T17:10:54.538Z,7.63
2022-10-25T17:13:21.541Z,7.53
2022-10-25T17:15:48.581Z,8.60
2022-10-25T17:18:20.869Z,4.47
2022-10-25T17:20:50.067Z,3.90
2022-10-25T17:23:17.013Z,7.22
2022-10-25T17:25:59.212Z,6.57
2022-10-25T17:32:50.568Z,15.65
2022-10-25T17:35:19.561Z,9.35
2022-10-25T17:37:47.202Z,8.30
2022-10-25T17:40:14.545Z,7.95
2022-10-25T17:43:07.764Z,7.55
2022-10-25T17:45:34.906Z,8.63
2022-10-25T17:48:02.745Z,8.40
2022-10-25T17:50:31.133Z,8.65
2022-10-25T17:53:02.269Z,11.55
2022-10-25T17:55:33.096Z,11.85
2022-10-25T17:59:04.405Z,14.20
2022-10-25T18:06:04.724Z,10.63
2022-10-25T18:08:31.646Z,10.82
2022-10-25T18:10:58.984Z,11.82
2022-10-25T18:13:28.931Z,15.80
2022-10-25T18:16:01.257Z,16.83
2022-10-25T18:18:28.261Z,10.70
2022-10-25T18:20:55.214Z,7.40
2022-10-25T18:23:26.086Z,7.85
2022-10-25T18:25:53.467Z,8.82
2022-10-25T18:28:20.509Z,10.43
2022-10-25T18:30:47.474Z,7.65
2022-10-25T18:33:15.128Z,9.88
2022-10-25T18:35:42.237Z,14.70
2022-10-25T18:38:09.257Z,13.38
2022-10-25T18:40:37.767Z,9.95
2022-10-25T18:43:04.737Z,6.65
2022-10-25T18:45:35.178Z,12.32
2022-10-25T18:48:02.139Z,8.57
2022-10-25T18:50:29.076Z,11.70
2022-10-25T18:52:56.056Z,25.27
2022-10-25T18:55:26.743Z,36.95
2022-10-25T18:57:54.876Z,81.85
2022-10-25T19:00:26.343Z,66.28
2022-10-25T19:02:57.317Z,52.95
2022-10-25T19:05:28.220Z,29.98
2022-10-25T19:07:56.198Z,53.60
2022-10-25T19:11:28.727Z,54.72
2022-10-25T19:13:56.598Z,44.92
2022-10-25T19:16:24.053Z,64.97
2022-10-25T19:18:51.144Z,60.60
2022-10-25T19:21:18.918Z,56.63
2022-10-25T19:27:47.716Z,22.38
2022-10-25T19:30:15.080Z,16.55
2022-10-25T19:32:42.178Z,14.75
2022-10-25T19:35:09.469Z,12.98
2022-10-25T19:37:39.712Z,18.02
2022-10-25T19:44:25.136Z,10.05
2022-10-25T19:46:52.588Z,13.13
2022-10-25T19:49:19.611Z,10.55
2022-10-25T19:51:47.158Z,12.18
2022-10-25T19:54:14.468Z,9.40
2022-10-25T19:56:41.436Z,12.82
2022-10-25T19:59:10.818Z,9.07
2022-10-25T20:02:32.569Z,13.55
2022-10-25T20:04:59.695Z,49.42
2022-10-25T20:07:26.665Z,33.13
2022-10-25T20:09:53.725Z,17.15
2022-10-25T20:12:21.000Z,11.93
2022-10-25T20:14:48.245Z,9.52
2022-10-25T20:17:15.547Z,8.95
2022-10-25T20:19:42.583Z,10.80
2022-10-25T20:22:09.541Z,11.60
2022-10-25T20:24:36.523Z,10.65
2022-10-25T20:27:03.484Z,10.23
2022-10-25T20:29:30.552Z,8.13
2022-10-25T20:31:57.558Z,14.68
2022-10-25T20:34:24.607Z,9.80
2022-10-25T20:37:06.197Z,11.02
2022-10-25T20:39:33.201Z,15.80
2022-10-25T20:42:00.497Z,9.60
2022-10-25T20:44:27.473Z,11.65
2022-10-25T20:46:54.807Z,11.23
2022-10-25T20:49:21.796Z,11.50
2022-10-25T20:51:48.776Z,6.35
2022-10-25T20:54:15.811Z,10.77
2022-10-25T20:56:42.783Z,13.60
2022-10-25T20:59:09.932Z,14.32
2022-10-25T21:01:37.414Z,11.15
2022-10-25T21:04:04.870Z,10.43
2022-10-25T21:06:31.866Z,9.77
2022-10-25T21:08:58.902Z,10.60
2022-10-25T21:11:29.064Z,9.52
2022-10-25T21:13:56.107Z,9.02
2022-10-25T21:16:23.351Z,15.75
2022-10-25T21:18:50.326Z,14.73
2022-10-25T21:21:19.525Z,16.90
2022-10-25T21:23:47.491Z,9.77
2022-10-25T21:26:14.768Z,7.93
2022-10-25T21:28:42.005Z,7.50
2022-10-25T21:31:11.799Z,10.15
2022-10-25T21:36:15.389Z,10.77
2022-10-25T21:38:42.950Z,9.93
2022-10-25T21:41:20.629Z,9.98
2022-10-25T21:43:49.953Z,9.88
2022-10-25T21:46:18.471Z,10.65
2022-10-25T21:48:50.732Z,8.52
2022-10-25T21:51:19.336Z,7.47
2022-10-25T21:53:47.209Z,8.25
2022-10-25T21:56:16.518Z,6.85
2022-10-25T21:58:45.150Z,10.65
2022-10-25T22:01:14.991Z,9.30
2022-10-25T22:03:42.448Z,6.55
2022-10-25T22:06:11.350Z,16.58
2022-10-25T22:08:38.882Z,11.10
2022-10-25T22:11:10.992Z,8.25
2022-10-25T22:13:38.014Z,17.27
2022-10-25T22:16:06.425Z,13.50
2022-10-25T22:18:33.888Z,6.60
2022-10-25T22:21:04.443Z,11.48
2022-10-25T22:23:32.376Z,8.07
2022-10-25T22:26:02.376Z,9.60
2022-10-25T22:28:30.478Z,14.80
2022-10-25T22:31:02.557Z,5.72
2022-10-25T22:33:30.178Z,8.20
2022-10-25T22:36:05.973Z,11.43
2022-10-25T22:38:33.388Z,7.53
2022-10-25T22:41:02.280Z,7.43
2022-10-25T22:43:30.042Z,8.60
2022-10-25T22:45:59.922Z,5.82
2022-10-25T22:48:30.993Z,11.38
2022-10-25T22:50:58.058Z,11.90
2022-10-25T22:53:25.345Z,7.35
2022-10-25T22:55:58.127Z,11.27
2022-10-25T22:58:26.696Z,8.50
2022-10-25T23:01:09.226Z,7.78
2022-10-25T23:03:38.501Z,11.55
2022-10-25T23:06:07.726Z,9.27
2022-10-25T23:08:34.686Z,7.50
2022-10-25T23:11:04.632Z,7.32
2022-10-25T23:13:33.614Z,5.22
2022-10-25T23:16:01.284Z,10.10
2022-10-25T23:18:28.317Z,6.88
2022-10-25T23:20:57.494Z,6.97
2022-10-25T23:23:25.549Z,7.35
2022-10-25T23:25:53.058Z,5.60
2022-10-25T23:28:20.560Z,7.10
2022-10-25T23:30:47.564Z,10.18
2022-10-25T23:33:15.699Z,6.32
2022-10-25T23:35:42.870Z,12.05
2022-10-25T23:38:13.980Z,7.38
2022-10-25T23:40:45.671Z,5.28
2022-10-25T23:43:12.616Z,8.55
2022-10-25T23:45:41.758Z,6.40
2022-10-25T23:48:08.851Z,8.57
2022-10-25T23:50:35.834Z,7.35
2022-10-25T23:53:02.881Z,6.18
2022-10-25T23:55:29.867Z,7.90
2022-10-25T23:57:57.902Z,6.78
